createdAt,value
2018-05-16T00:00:02.606Z,66.27
2018-05-16T00:05:01.507Z,66.27
2018-05-16T00:10:01.489Z,68.84
2018-05-16T00:15:01.530Z,68.84
2018-05-16T00:20:01.674Z,69.69
2018-05-16T00:25:01.579Z,69.69
2018-05-16T00:30:01.618Z,71.84
2018-05-16T00:40:01.545Z,70.83
2018-05-16T00:45:01.433Z,70.83
2018-05-16T00:50:01.562Z,72.90
2018-05-16T01:00:01.643Z,73.49
2018-05-16T01:10:01.549Z,73.49
2018-05-16T01:15:01.536Z,73.49
2018-05-16T01:20:01.590Z,73.82
2018-05-16T01:25:01.604Z,73.82
2018-05-16T01:30:01.617Z,75.53
2018-05-16T01:41:01.608Z,75.82
2018-05-16T01:51:01.547Z,76.25
2018-05-16T01:56:01.479Z,76.25
2018-05-16T02:06:01.391Z,75.96
2018-05-16T02:11:01.444Z,76.50
2018-05-16T02:16:01.517Z,76.50
2018-05-16T02:31:01.483Z,76.58
2018-05-16T02:41:01.447Z,78.09
2018-05-16T02:56:01.429Z,77.91
2018-05-16T03:11:01.444Z,77.83
2018-05-16T03:26:01.429Z,77.67
2018-05-16T03:31:01.480Z,77.48
2018-05-16T03:46:01.494Z,77.04
2018-05-16T03:56:01.529Z,78.22
2018-05-16T04:06:01.784Z,78.35
2018-05-16T04:16:01.466Z,79.00
2018-05-16T04:21:01.519Z,78.10
2018-05-16T04:26:01.522Z,78.10
2018-05-16T04:36:01.568Z,78.44
2018-05-16T04:41:01.557Z,77.58
2018-05-16T04:46:01.545Z,77.58
2018-05-16T04:51:01.542Z,75.25
2018-05-16T04:56:01.510Z,75.25
2018-05-16T05:01:01.861Z,73.62
2018-05-16T05:06:01.537Z,73.62
2018-05-16T05:11:01.502Z,72.40
2018-05-16T05:16:01.506Z,72.40
2018-05-16T05:21:01.524Z,71.59
2018-05-16T05:26:01.461Z,71.59
2018-05-16T05:31:01.520Z,72.39
2018-05-16T05:41:01.499Z,72.52
2018-05-16T05:46:01.548Z,72.52
2018-05-16T05:51:01.534Z,65.83
2018-05-16T05:56:01.506Z,65.83
2018-05-16T06:01:01.473Z,66.99
2018-05-16T06:11:01.544Z,66.56
2018-05-16T06:16:01.574Z,66.56
2018-05-16T06:21:01.738Z,61.71
2018-05-16T06:26:01.789Z,61.71
2018-05-16T06:31:01.534Z,62.92
2018-05-16T06:36:01.549Z,62.92
2018-05-16T06:41:01.601Z,60.26
2018-05-16T06:46:01.553Z,60.26
2018-05-16T06:51:02.622Z,60.02
2018-05-16T06:56:01.540Z,60.02
2018-05-16T07:01:01.602Z,60.90
2018-05-16T07:06:01.546Z,60.90
2018-05-16T07:11:01.901Z,59.20
2018-05-16T07:16:01.544Z,59.20
2018-05-16T07:21:01.677Z,58.54
2018-05-16T07:31:01.407Z,58.92
2018-05-16T07:36:01.545Z,58.92
2018-05-16T07:41:01.666Z,56.41
2018-05-16T07:46:01.542Z,56.41
2018-05-16T07:51:01.602Z,56.53
2018-05-16T07:56:01.870Z,56.53
2018-05-16T08:01:01.539Z,54.39
2018-05-16T08:06:01.574Z,54.39
2018-05-16T08:11:01.635Z,52.78
2018-05-16T08:16:01.617Z,52.78
2018-05-16T08:21:01.615Z,51.06
2018-05-16T08:26:01.560Z,51.06
2018-05-16T08:31:01.801Z,49.56
2018-05-16T08:36:01.532Z,49.56
2018-05-16T08:41:01.632Z,49.09
2018-05-16T08:46:01.531Z,49.09
2018-05-16T08:51:01.815Z,47.80
2018-05-16T08:56:01.596Z,47.80
2018-05-16T09:01:01.636Z,45.85
2018-05-16T09:06:01.538Z,45.85
2018-05-16T09:11:01.659Z,49.21
2018-05-16T09:16:01.549Z,49.21
2018-05-16T09:21:01.620Z,55.18
2018-05-16T09:26:01.580Z,55.18
2018-05-16T09:31:01.561Z,54.76
2018-05-16T09:36:01.538Z,54.76
2018-05-16T09:41:01.680Z,56.21
2018-05-16T09:46:01.827Z,56.21
2018-05-16T09:51:01.694Z,57.21
2018-05-16T10:06:01.539Z,57.62
2018-05-16T10:11:01.773Z,59.72
2018-05-16T10:16:01.539Z,59.72
2018-05-16T10:21:01.724Z,59.06
2018-05-16T10:36:01.546Z,61.24
2018-05-16T10:41:01.610Z,62.73
2018-05-16T10:56:01.853Z,62.50
2018-05-16T11:01:01.523Z,60.25
2018-05-16T11:06:01.567Z,60.25
2018-05-16T11:11:01.630Z,58.39
2018-05-16T11:16:01.538Z,58.39
2018-05-16T11:21:01.537Z,56.42
2018-05-16T11:26:01.636Z,56.42
2018-05-16T11:31:01.622Z,56.70
2018-05-16T11:36:01.573Z,56.70
2018-05-16T11:41:02.751Z,55.43
2018-05-16T11:46:01.618Z,55.43
2018-05-16T12:01:01.410Z,55.70
2018-05-16T12:16:01.412Z,57.09
2018-05-16T12:26:01.870Z,53.60
2018-05-16T12:36:01.793Z,55.73
2018-05-16T12:41:01.604Z,51.72
2018-05-16T12:51:01.609Z,52.78
2018-05-16T12:56:01.542Z,52.78
2018-05-16T13:01:01.917Z,46.72
2018-05-16T13:06:01.532Z,46.72
2018-05-16T13:11:01.666Z,47.86
2018-05-16T13:16:01.598Z,47.86
2018-05-16T13:26:01.597Z,47.07
2018-05-16T13:31:01.540Z,49.42
2018-05-16T13:36:01.535Z,49.42
2018-05-16T13:41:01.604Z,48.50
2018-05-16T13:56:01.597Z,50.66
2018-05-16T14:02:01.528Z,48.83
2018-05-16T14:17:01.412Z,48.36
2018-05-16T14:32:01.400Z,50.35
2018-05-16T14:37:01.543Z,50.35
2018-05-16T14:52:01.602Z,49.01
2018-05-16T14:57:01.616Z,49.01
2018-05-16T15:02:01.532Z,49.35
2018-05-16T15:07:01.531Z,49.35
2018-05-16T15:12:01.663Z,46.79
2018-05-16T15:17:01.603Z,46.79
2018-05-16T15:22:01.865Z,43.32
2018-05-16T15:27:01.731Z,43.32
2018-05-16T15:32:01.532Z,40.71
2018-05-16T15:37:01.531Z,40.71
2018-05-16T15:42:02.023Z,42.15
2018-05-16T15:57:01.670Z,42.69
2018-05-16T16:02:01.569Z,44.93
2018-05-16T16:07:01.544Z,44.93
2018-05-16T16:12:01.743Z,50.99
2018-05-16T16:17:01.573Z,50.99
2018-05-16T16:22:01.756Z,52.30
2018-05-16T16:27:01.530Z,52.30
2018-05-16T16:32:01.550Z,53.64
2018-05-16T16:37:01.598Z,53.64
2018-05-16T16:42:01.800Z,54.85
2018-05-16T16:47:01.675Z,54.85
2018-05-16T16:52:01.668Z,53.58
2018-05-16T16:57:01.680Z,53.58
2018-05-16T17:02:01.669Z,53.27
2018-05-16T17:07:01.875Z,53.27
2018-05-16T17:12:01.787Z,53.55
2018-05-16T17:17:01.673Z,53.55
2018-05-16T17:22:01.713Z,53.15
2018-05-16T17:27:01.706Z,53.15
2018-05-16T17:32:01.713Z,52.14
2018-05-16T17:37:01.535Z,52.14
2018-05-16T17:42:01.767Z,51.59
2018-05-16T17:47:01.773Z,51.59
2018-05-16T17:52:01.686Z,52.12
2018-05-16T17:57:01.689Z,52.12
2018-05-16T18:02:01.719Z,53.32
2018-05-16T18:07:01.755Z,53.32
2018-05-16T18:12:01.725Z,55.14
2018-05-16T18:17:02.050Z,55.14
2018-05-16T18:22:01.660Z,54.84
2018-05-16T18:27:01.682Z,54.84
2018-05-16T18:32:01.870Z,56.04
2018-05-16T18:37:01.573Z,56.04
2018-05-16T18:42:01.648Z,57.07
2018-05-16T18:47:01.800Z,57.07
2018-05-16T18:52:01.663Z,57.48
2018-05-16T18:57:01.663Z,57.48
2018-05-16T19:02:01.729Z,57.67
2018-05-16T19:07:01.763Z,57.67
2018-05-16T19:12:01.685Z,58.88
2018-05-16T19:17:01.749Z,58.88
2018-05-16T19:22:01.818Z,59.28
2018-05-16T19:27:02.106Z,59.28
2018-05-16T19:32:01.702Z,60.96
2018-05-16T19:37:01.685Z,60.96
2018-05-16T19:42:01.668Z,62.38
2018-05-16T19:47:01.704Z,62.38
2018-05-16T19:52:01.737Z,63.14
2018-05-16T19:57:01.704Z,63.14
2018-05-16T20:02:01.754Z,64.29
2018-05-16T20:07:01.709Z,64.29
2018-05-16T20:12:01.817Z,64.97
2018-05-16T20:17:01.778Z,64.97
2018-05-16T20:23:01.695Z,66.31
2018-05-16T20:28:01.710Z,66.31
2018-05-16T20:33:01.708Z,66.67
2018-05-16T20:38:01.736Z,66.67
2018-05-16T20:43:01.685Z,67.56
2018-05-16T20:48:01.718Z,67.56
2018-05-16T20:53:01.577Z,69.26
2018-05-16T20:58:01.584Z,69.26
2018-05-16T21:03:01.637Z,69.87
2018-05-16T21:08:01.655Z,69.87
2018-05-16T21:13:01.709Z,70.70
2018-05-16T21:18:01.578Z,70.70
2018-05-16T21:23:01.762Z,71.18
2018-05-16T21:28:01.627Z,71.18
2018-05-16T21:33:01.624Z,71.81
2018-05-16T21:38:01.562Z,71.81
2018-05-16T21:43:01.711Z,72.18
2018-05-16T21:48:01.634Z,72.18
2018-05-16T21:53:01.712Z,73.02
2018-05-16T21:58:01.593Z,73.02
2018-05-16T22:03:01.651Z,73.61
2018-05-16T22:08:01.576Z,73.61
2018-05-16T22:13:01.626Z,73.95
2018-05-16T22:18:01.553Z,73.95
2018-05-16T22:23:01.679Z,74.22
2018-05-16T22:28:01.556Z,74.22
2018-05-16T22:33:01.704Z,74.90
2018-05-16T22:38:01.621Z,74.90
2018-05-16T22:43:01.786Z,75.70
2018-05-16T22:53:01.619Z,76.04
2018-05-16T23:03:01.601Z,76.54
2018-05-16T23:13:01.687Z,76.84
2018-05-16T23:23:01.600Z,77.37
2018-05-16T23:28:01.568Z,77.37
2018-05-16T23:38:01.606Z,77.55
2018-05-16T23:49:01.613Z,78.00
